sensor_id;sensor_type;location;lat;lon;timestamp;P1;durP1;ratioP1;P2;durP2;ratioP2
12567;SDS011;6349;50.904;6.136;2023-04-03T00:00:56;1.70;;;1.60;;
12567;SDS011;6349;50.904;6.136;2023-04-03T00:02:58;2.93;;;1.90;;
12567;SDS011;6349;50.904;6.136;2023-04-03T00:05:00;1.97;;;1.70;;
12567;SDS011;6349;50.904;6.136;2023-04-03T00:07:02;2.90;;;2.03;;
12567;SDS011;6349;50.904;6.136;2023-04-03T00:09:04;2.87;;;1.73;;
12567;SDS011;6349;50.904;6.136;2023-04-03T00:11:06;2.30;;;1.80;;
12567;SDS011;6349;50.904;6.136;2023-04-03T00:13:08;2.53;;;2.10;;
12567;SDS011;6349;50.904;6.136;2023-04-03T00:15:10;1.53;;;1.40;;
12567;SDS011;6349;50.904;6.136;2023-04-03T00:17:12;2.17;;;1.60;;
12567;SDS011;6349;50.904;6.136;2023-04-03T00:19:14;2.77;;;1.60;;
12567;SDS011;6349;50.904;6.136;2023-04-03T00:21:16;2.63;;;1.87;;
12567;SDS011;6349;50.904;6.136;2023-04-03T00:23:18;1.57;;;1.47;;
12567;SDS011;6349;50.904;6.136;2023-04-03T00:25:20;1.97;;;1.50;;
12567;SDS011;6349;50.904;6.136;2023-04-03T00:27:23;2.43;;;1.60;;
12567;SDS011;6349;50.904;6.136;2023-04-03T00:29:23;1.43;;;1.33;;
12567;SDS011;6349;50.904;6.136;2023-04-03T00:31:25;2.00;;;1.53;;
12567;SDS011;6349;50.904;6.136;2023-04-03T00:33:26;1.67;;;1.47;;
12567;SDS011;6349;50.904;6.136;2023-04-03T00:35:27;1.70;;;1.60;;
12567;SDS011;6349;50.904;6.136;2023-04-03T00:37:29;3.50;;;2.27;;
12567;SDS011;6349;50.904;6.136;2023-04-03T00:39:32;3.13;;;2.07;;
12567;SDS011;6349;50.904;6.136;2023-04-03T00:41:32;2.13;;;1.70;;
12567;SDS011;6349;50.904;6.136;2023-04-03T00:43:33;2.20;;;2.00;;
12567;SDS011;6349;50.904;6.136;2023-04-03T00:45:35;3.40;;;2.20;;
12567;SDS011;6349;50.904;6.136;2023-04-03T00:47:39;1.90;;;1.70;;
12567;SDS011;6349;50.904;6.136;2023-04-03T00:49:41;2.77;;;1.90;;
12567;SDS011;6349;50.904;6.136;2023-04-03T00:51:43;2.47;;;1.93;;
12567;SDS011;6349;50.904;6.136;2023-04-03T00:53:57;1.90;;;1.70;;
12567;SDS011;6349;50.904;6.136;2023-04-03T00:56:00;2.43;;;1.80;;
12567;SDS011;6349;50.904;6.136;2023-04-03T00:58:06;3.13;;;2.00;;
12567;SDS011;6349;50.904;6.136;2023-04-03T01:00:08;2.10;;;1.60;;
12567;SDS011;6349;50.904;6.136;2023-04-03T01:02:12;2.80;;;1.60;;
12567;SDS011;6349;50.904;6.136;2023-04-03T01:06:36;3.03;;;1.80;;
12567;SDS011;6349;50.904;6.136;2023-04-03T01:08:38;2.87;;;2.20;;
12567;SDS011;6349;50.904;6.136;2023-04-03T01:10:40;2.57;;;2.00;;
12567;SDS011;6349;50.904;6.136;2023-04-03T01:12:42;2.00;;;1.80;;
12567;SDS011;6349;50.904;6.136;2023-04-03T01:14:48;2.30;;;1.70;;
12567;SDS011;6349;50.904;6.136;2023-04-03T01:16:54;2.93;;;1.93;;
12567;SDS011;6349;50.904;6.136;2023-04-03T01:18:56;2.90;;;1.93;;
12567;SDS011;6349;50.904;6.136;2023-04-03T01:21:09;2.57;;;2.20;;
12567;SDS011;6349;50.904;6.136;2023-04-03T01:23:31;3.53;;;2.20;;
12567;SDS011;6349;50.904;6.136;2023-04-03T01:27:45;2.47;;;1.93;;
12567;SDS011;6349;50.904;6.136;2023-04-03T01:29:47;2.37;;;2.17;;
12567;SDS011;6349;50.904;6.136;2023-04-03T01:32:07;4.27;;;2.10;;
12567;SDS011;6349;50.904;6.136;2023-04-03T01:34:09;3.37;;;2.40;;
12567;SDS011;6349;50.904;6.136;2023-04-03T01:36:16;2.40;;;2.20;;
12567;SDS011;6349;50.904;6.136;2023-04-03T01:38:20;3.10;;;2.40;;
12567;SDS011;6349;50.904;6.136;2023-04-03T01:40:22;3.93;;;2.30;;
12567;SDS011;6349;50.904;6.136;2023-04-03T01:42:24;2.87;;;2.27;;
12567;SDS011;6349;50.904;6.136;2023-04-03T01:44:26;3.17;;;2.37;;
12567;SDS011;6349;50.904;6.136;2023-04-03T01:46:28;2.90;;;2.50;;
12567;SDS011;6349;50.904;6.136;2023-04-03T01:48:29;2.40;;;2.10;;
12567;SDS011;6349;50.904;6.136;2023-04-03T01:50:32;2.43;;;2.23;;
12567;SDS011;6349;50.904;6.136;2023-04-03T01:52:32;3.07;;;2.40;;
12567;SDS011;6349;50.904;6.136;2023-04-03T01:54:33;3.30;;;2.53;;
12567;SDS011;6349;50.904;6.136;2023-04-03T01:56:34;2.50;;;2.30;;
12567;SDS011;6349;50.904;6.136;2023-04-03T01:58:34;2.40;;;2.20;;
12567;SDS011;6349;50.904;6.136;2023-04-03T02:00:35;2.27;;;1.93;;
12567;SDS011;6349;50.904;6.136;2023-04-03T02:02:39;4.97;;;2.20;;
12567;SDS011;6349;50.904;6.136;2023-04-03T02:04:41;2.33;;;2.00;;
12567;SDS011;6349;50.904;6.136;2023-04-03T02:06:45;3.40;;;2.07;;
12567;SDS011;6349;50.904;6.136;2023-04-03T02:08:45;3.33;;;2.10;;
12567;SDS011;6349;50.904;6.136;2023-04-03T02:10:49;2.00;;;1.73;;
12567;SDS011;6349;50.904;6.136;2023-04-03T02:12:53;2.40;;;1.97;;
12567;SDS011;6349;50.904;6.136;2023-04-03T02:14:54;2.73;;;2.00;;
12567;SDS011;6349;50.904;6.136;2023-04-03T02:16:56;2.27;;;2.00;;
12567;SDS011;6349;50.904;6.136;2023-04-03T02:18:56;2.90;;;2.03;;
12567;SDS011;6349;50.904;6.136;2023-04-03T02:20:57;3.90;;;2.00;;
12567;SDS011;6349;50.904;6.136;2023-04-03T02:22:58;3.40;;;2.40;;
12567;SDS011;6349;50.904;6.136;2023-04-03T02:24:59;3.47;;;2.20;;
12567;SDS011;6349;50.904;6.136;2023-04-03T02:26:59;4.03;;;2.20;;
12567;SDS011;6349;50.904;6.136;2023-04-03T02:29:00;3.13;;;2.83;;
12567;SDS011;6349;50.904;6.136;2023-04-03T02:31:02;3.53;;;2.60;;
12567;SDS011;6349;50.904;6.136;2023-04-03T02:33:04;4.37;;;2.43;;
12567;SDS011;6349;50.904;6.136;2023-04-03T02:35:06;5.00;;;2.50;;
12567;SDS011;6349;50.904;6.136;2023-04-03T02:37:07;3.70;;;2.57;;
12567;SDS011;6349;50.904;6.136;2023-04-03T02:39:09;3.80;;;2.83;;
12567;SDS011;6349;50.904;6.136;2023-04-03T02:41:11;4.27;;;2.40;;
12567;SDS011;6349;50.904;6.136;2023-04-03T02:43:13;6.13;;;2.70;;
12567;SDS011;6349;50.904;6.136;2023-04-03T02:45:14;3.77;;;2.50;;
12567;SDS011;6349;50.904;6.136;2023-04-03T02:47:16;5.73;;;2.73;;
12567;SDS011;6349;50.904;6.136;2023-04-03T02:49:18;3.00;;;2.70;;
12567;SDS011;6349;50.904;6.136;2023-04-03T02:51:18;3.10;;;2.70;;
12567;SDS011;6349;50.904;6.136;2023-04-03T02:53:19;3.83;;;2.57;;
12567;SDS011;6349;50.904;6.136;2023-04-03T02:55:20;4.90;;;3.10;;
12567;SDS011;6349;50.904;6.136;2023-04-03T02:57:21;4.80;;;3.13;;
12567;SDS011;6349;50.904;6.136;2023-04-03T02:59:22;4.43;;;2.80;;
12567;SDS011;6349;50.904;6.136;2023-04-03T03:01:24;5.43;;;2.83;;
12567;SDS011;6349;50.904;6.136;2023-04-03T03:03:27;4.70;;;2.93;;
12567;SDS011;6349;50.904;6.136;2023-04-03T03:05:29;6.07;;;2.60;;
12567;SDS011;6349;50.904;6.136;2023-04-03T03:07:31;5.43;;;2.60;;
12567;SDS011;6349;50.904;6.136;2023-04-03T03:09:32;3.20;;;2.50;;
12567;SDS011;6349;50.904;6.136;2023-04-03T03:11:33;3.87;;;2.60;;
12567;SDS011;6349;50.904;6.136;2023-04-03T03:13:33;3.53;;;2.70;;
12567;SDS011;6349;50.904;6.136;2023-04-03T03:15:36;2.67;;;2.40;;
12567;SDS011;6349;50.904;6.136;2023-04-03T03:17:38;3.80;;;2.67;;
12567;SDS011;6349;50.904;6.136;2023-04-03T03:19:40;2.77;;;2.57;;
12567;SDS011;6349;50.904;6.136;2023-04-03T03:21:41;3.53;;;2.90;;
12567;SDS011;6349;50.904;6.136;2023-04-03T03:23:43;3.00;;;2.70;;
12567;SDS011;6349;50.904;6.136;2023-04-03T03:25:45;4.47;;;2.60;;
12567;SDS011;6349;50.904;6.136;2023-04-03T03:27:46;3.90;;;3.10;;
12567;SDS011;6349;50.904;6.136;2023-04-03T03:29:46;7.07;;;2.93;;
12567;SDS011;6349;50.904;6.136;2023-04-03T03:31:48;4.67;;;3.30;;
12567;SDS011;6349;50.904;6.136;2023-04-03T03:33:50;7.77;;;3.17;;
12567;SDS011;6349;50.904;6.136;2023-04-03T03:35:52;4.57;;;3.10;;
12567;SDS011;6349;50.904;6.136;2023-04-03T03:37:55;3.77;;;3.10;;
12567;SDS011;6349;50.904;6.136;2023-04-03T03:39:56;3.30;;;3.00;;
12567;SDS011;6349;50.904;6.136;2023-04-03T03:41:58;4.57;;;3.20;;
12567;SDS011;6349;50.904;6.136;2023-04-03T03:44:00;3.20;;;2.90;;
12567;SDS011;6349;50.904;6.136;2023-04-03T03:46:02;3.83;;;3.43;;
12567;SDS011;6349;50.904;6.136;2023-04-03T03:48:04;3.50;;;3.20;;
12567;SDS011;6349;50.904;6.136;2023-04-03T03:50:06;4.40;;;3.67;;
12567;SDS011;6349;50.904;6.136;2023-04-03T03:52:09;4.00;;;3.70;;
12567;SDS011;6349;50.904;6.136;2023-04-03T03:54:10;4.33;;;3.80;;
12567;SDS011;6349;50.904;6.136;2023-04-03T03:56:11;4.33;;;3.50;;
12567;SDS011;6349;50.904;6.136;2023-04-03T03:58:11;4.20;;;3.77;;
12567;SDS011;6349;50.904;6.136;2023-04-03T04:00:12;4.07;;;3.67;;
12567;SDS011;6349;50.904;6.136;2023-04-03T04:02:16;4.17;;;3.80;;
12567;SDS011;6349;50.904;6.136;2023-04-03T04:04:17;4.03;;;3.63;;
12567;SDS011;6349;50.904;6.136;2023-04-03T04:06:19;3.80;;;3.50;;
12567;SDS011;6349;50.904;6.136;2023-04-03T04:08:20;3.53;;;3.23;;
12567;SDS011;6349;50.904;6.136;2023-04-03T04:10:21;4.13;;;3.40;;
12567;SDS011;6349;50.904;6.136;2023-04-03T04:12:21;3.97;;;3.40;;
12567;SDS011;6349;50.904;6.136;2023-04-03T04:14:22;4.27;;;3.40;;
12567;SDS011;6349;50.904;6.136;2023-04-03T04:16:24;3.70;;;3.40;;
12567;SDS011;6349;50.904;6.136;2023-04-03T04:18:25;4.10;;;3.77;;
12567;SDS011;6349;50.904;6.136;2023-04-03T04:20:25;5.50;;;3.47;;
12567;SDS011;6349;50.904;6.136;2023-04-03T04:22:26;4.63;;;3.53;;
12567;SDS011;6349;50.904;6.136;2023-04-03T04:24:26;4.10;;;3.70;;
12567;SDS011;6349;50.904;6.136;2023-04-03T04:26:27;4.10;;;3.70;;
12567;SDS011;6349;50.904;6.136;2023-04-03T04:28:28;4.13;;;3.73;;
12567;SDS011;6349;50.904;6.136;2023-04-03T04:30:29;4.03;;;3.57;;
12567;SDS011;6349;50.904;6.136;2023-04-03T04:32:31;5.27;;;3.87;;
12567;SDS011;6349;50.904;6.136;2023-04-03T04:34:31;3.93;;;3.50;;
12567;SDS011;6349;50.904;6.136;2023-04-03T04:36:33;4.17;;;3.80;;
12567;SDS011;6349;50.904;6.136;2023-04-03T04:38:34;4.37;;;3.70;;
12567;SDS011;6349;50.904;6.136;2023-04-03T04:40:35;4.33;;;3.87;;
12567;SDS011;6349;50.904;6.136;2023-04-03T04:42:37;4.53;;;3.83;;
12567;SDS011;6349;50.904;6.136;2023-04-03T04:44:38;4.00;;;3.60;;
12567;SDS011;6349;50.904;6.136;2023-04-03T04:46:40;4.70;;;4.10;;
12567;SDS011;6349;50.904;6.136;2023-04-03T04:48:41;3.80;;;3.23;;
12567;SDS011;6349;50.904;6.136;2023-04-03T04:50:43;4.20;;;3.70;;
12567;SDS011;6349;50.904;6.136;2023-04-03T04:52:44;4.23;;;3.83;;
12567;SDS011;6349;50.904;6.136;2023-04-03T04:54:45;4.10;;;3.70;;
12567;SDS011;6349;50.904;6.136;2023-04-03T04:56:45;4.17;;;3.40;;
12567;SDS011;6349;50.904;6.136;2023-04-03T04:58:46;4.73;;;3.40;;
12567;SDS011;6349;50.904;6.136;2023-04-03T05:00:46;3.20;;;2.90;;
12567;SDS011;6349;50.904;6.136;2023-04-03T05:02:48;4.23;;;3.63;;
12567;SDS011;6349;50.904;6.136;2023-04-03T05:04:50;5.13;;;3.63;;
12567;SDS011;6349;50.904;6.136;2023-04-03T05:06:52;3.80;;;3.40;;
12567;SDS011;6349;50.904;6.136;2023-04-03T05:08:52;4.03;;;3.13;;
12567;SDS011;6349;50.904;6.136;2023-04-03T05:10:53;4.60;;;3.37;;
12567;SDS011;6349;50.904;6.136;2023-04-03T05:12:54;4.07;;;3.20;;
12567;SDS011;6349;50.904;6.136;2023-04-03T05:14:55;4.00;;;3.43;;
12567;SDS011;6349;50.904;6.136;2023-04-03T05:16:56;5.90;;;3.37;;
12567;SDS011;6349;50.904;6.136;2023-04-03T05:18:58;3.20;;;2.90;;
12567;SDS011;6349;50.904;6.136;2023-04-03T05:20:58;3.90;;;3.10;;
12567;SDS011;6349;50.904;6.136;2023-04-03T05:22:59;3.33;;;3.03;;
12567;SDS011;6349;50.904;6.136;2023-04-03T05:25:00;4.27;;;3.23;;
12567;SDS011;6349;50.904;6.136;2023-04-03T05:27:00;3.53;;;3.10;;
12567;SDS011;6349;50.904;6.136;2023-04-03T05:29:01;3.50;;;3.20;;
12567;SDS011;6349;50.904;6.136;2023-04-03T05:31:02;5.80;;;3.30;;
12567;SDS011;6349;50.904;6.136;2023-04-03T05:33:02;5.80;;;3.60;;
12567;SDS011;6349;50.904;6.136;2023-04-03T05:35:04;4.10;;;3.30;;
12567;SDS011;6349;50.904;6.136;2023-04-03T05:37:05;4.83;;;3.50;;
12567;SDS011;6349;50.904;6.136;2023-04-03T05:39:06;3.77;;;3.10;;
12567;SDS011;6349;50.904;6.136;2023-04-03T05:41:07;5.17;;;3.43;;
12567;SDS011;6349;50.904;6.136;2023-04-03T05:43:07;3.50;;;3.00;;
12567;SDS011;6349;50.904;6.136;2023-04-03T05:45:09;3.33;;;3.03;;
12567;SDS011;6349;50.904;6.136;2023-04-03T05:47:10;3.80;;;3.40;;
12567;SDS011;6349;50.904;6.136;2023-04-03T05:49:15;4.13;;;3.20;;
12567;SDS011;6349;50.904;6.136;2023-04-03T05:51:17;5.03;;;3.20;;
12567;SDS011;6349;50.904;6.136;2023-04-03T05:53:31;4.30;;;3.00;;
12567;SDS011;6349;50.904;6.136;2023-04-03T05:55:34;4.47;;;3.17;;
12567;SDS011;6349;50.904;6.136;2023-04-03T05:57:35;4.30;;;3.00;;
12567;SDS011;6349;50.904;6.136;2023-04-03T05:59:35;3.40;;;3.10;;
12567;SDS011;6349;50.904;6.136;2023-04-03T06:01:36;3.60;;;2.87;;
12567;SDS011;6349;50.904;6.136;2023-04-03T06:03:37;3.93;;;3.53;;
12567;SDS011;6349;50.904;6.136;2023-04-03T06:05:39;5.80;;;3.30;;
12567;SDS011;6349;50.904;6.136;2023-04-03T06:07:43;3.40;;;3.10;;
12567;SDS011;6349;50.904;6.136;2023-04-03T06:09:45;3.60;;;3.30;;
12567;SDS011;6349;50.904;6.136;2023-04-03T06:11:45;4.03;;;3.40;;
12567;SDS011;6349;50.904;6.136;2023-04-03T06:13:46;5.60;;;3.57;;
12567;SDS011;6349;50.904;6.136;2023-04-03T06:15:46;3.73;;;3.30;;
12567;SDS011;6349;50.904;6.136;2023-04-03T06:17:47;3.50;;;3.20;;
12567;SDS011;6349;50.904;6.136;2023-04-03T06:19:48;3.57;;;3.10;;
12567;SDS011;6349;50.904;6.136;2023-04-03T06:21:49;4.63;;;3.23;;
12567;SDS011;6349;50.904;6.136;2023-04-03T06:23:50;3.73;;;3.07;;
12567;SDS011;6349;50.904;6.136;2023-04-03T06:25:51;4.27;;;3.23;;
12567;SDS011;6349;50.904;6.136;2023-04-03T06:27:52;4.73;;;3.30;;
12567;SDS011;6349;50.904;6.136;2023-04-03T06:29:55;4.43;;;3.60;;
12567;SDS011;6349;50.904;6.136;2023-04-03T06:31:56;3.83;;;2.97;;
12567;SDS011;6349;50.904;6.136;2023-04-03T06:33:58;4.90;;;3.50;;
12567;SDS011;6349;50.904;6.136;2023-04-03T06:36:04;4.17;;;3.23;;
12567;SDS011;6349;50.904;6.136;2023-04-03T06:38:06;5.47;;;3.23;;
12567;SDS011;6349;50.904;6.136;2023-04-03T06:40:21;4.70;;;3.40;;
12567;SDS011;6349;50.904;6.136;2023-04-03T06:42:23;4.07;;;3.17;;
12567;SDS011;6349;50.904;6.136;2023-04-03T06:44:24;4.63;;;3.30;;
12567;SDS011;6349;50.904;6.136;2023-04-03T06:46:26;3.90;;;3.47;;
12567;SDS011;6349;50.904;6.136;2023-04-03T06:48:27;4.30;;;3.30;;
12567;SDS011;6349;50.904;6.136;2023-04-03T06:50:29;3.60;;;3.20;;
12567;SDS011;6349;50.904;6.136;2023-04-03T06:52:29;3.93;;;3.07;;
12567;SDS011;6349;50.904;6.136;2023-04-03T06:54:30;4.60;;;3.20;;
12567;SDS011;6349;50.904;6.136;2023-04-03T06:56:33;4.23;;;3.20;;
12567;SDS011;6349;50.904;6.136;2023-04-03T06:58:34;3.33;;;2.83;;
12567;SDS011;6349;50.904;6.136;2023-04-03T07:00:37;4.77;;;2.80;;
12567;SDS011;6349;50.904;6.136;2023-04-03T07:02:39;2.90;;;2.63;;
12567;SDS011;6349;50.904;6.136;2023-04-03T07:04:41;2.90;;;2.60;;
12567;SDS011;6349;50.904;6.136;2023-04-03T07:06:42;3.27;;;2.70;;
12567;SDS011;6349;50.904;6.136;2023-04-03T07:08:43;2.97;;;2.40;;
12567;SDS011;6349;50.904;6.136;2023-04-03T07:10:48;3.67;;;2.60;;
12567;SDS011;6349;50.904;6.136;2023-04-03T07:12:53;2.97;;;2.67;;
12567;SDS011;6349;50.904;6.136;2023-04-03T07:14:54;3.27;;;2.53;;
12567;SDS011;6349;50.904;6.136;2023-04-03T07:16:56;3.73;;;2.50;;
12567;SDS011;6349;50.904;6.136;2023-04-03T07:18:58;3.67;;;2.73;;
12567;SDS011;6349;50.904;6.136;2023-04-03T07:20:58;4.80;;;2.60;;
12567;SDS011;6349;50.904;6.136;2023-04-03T07:23:00;5.67;;;2.80;;
12567;SDS011;6349;50.904;6.136;2023-04-03T07:25:03;3.83;;;2.80;;
12567;SDS011;6349;50.904;6.136;2023-04-03T07:27:08;2.70;;;2.50;;
12567;SDS011;6349;50.904;6.136;2023-04-03T07:29:10;3.40;;;2.67;;
12567;SDS011;6349;50.904;6.136;2023-04-03T07:31:16;4.10;;;3.17;;
12567;SDS011;6349;50.904;6.136;2023-04-03T07:33:19;4.17;;;2.90;;
12567;SDS011;6349;50.904;6.136;2023-04-03T07:35:21;3.70;;;2.70;;
12567;SDS011;6349;50.904;6.136;2023-04-03T07:37:22;3.90;;;2.80;;
12567;SDS011;6349;50.904;6.136;2023-04-03T07:39:23;3.90;;;2.67;;
12567;SDS011;6349;50.904;6.136;2023-04-03T07:41:24;3.97;;;2.50;;
12567;SDS011;6349;50.904;6.136;2023-04-03T07:43:24;4.13;;;2.30;;
12567;SDS011;6349;50.904;6.136;2023-04-03T07:45:26;3.90;;;2.87;;
12567;SDS011;6349;50.904;6.136;2023-04-03T07:47:28;4.47;;;2.50;;
12567;SDS011;6349;50.904;6.136;2023-04-03T07:49:30;4.73;;;2.73;;
12567;SDS011;6349;50.904;6.136;2023-04-03T07:51:32;4.80;;;2.47;;
12567;SDS011;6349;50.904;6.136;2023-04-03T07:53:33;2.77;;;2.50;;
12567;SDS011;6349;50.904;6.136;2023-04-03T07:55:35;4.27;;;2.50;;
12567;SDS011;6349;50.904;6.136;2023-04-03T07:57:42;4.40;;;2.40;;
12567;SDS011;6349;50.904;6.136;2023-04-03T07:59:43;3.70;;;2.40;;
12567;SDS011;6349;50.904;6.136;2023-04-03T08:01:45;3.20;;;2.37;;
12567;SDS011;6349;50.904;6.136;2023-04-03T08:03:47;3.03;;;2.20;;
12567;SDS011;6349;50.904;6.136;2023-04-03T08:05:49;3.03;;;2.20;;
12567;SDS011;6349;50.904;6.136;2023-04-03T08:07:50;3.53;;;2.53;;
12567;SDS011;6349;50.904;6.136;2023-04-03T08:09:51;2.27;;;2.07;;
12567;SDS011;6349;50.904;6.136;2023-04-03T08:11:52;4.90;;;2.60;;
12567;SDS011;6349;50.904;6.136;2023-04-03T08:13:53;4.23;;;2.17;;
12567;SDS011;6349;50.904;6.136;2023-04-03T08:15:55;3.83;;;2.10;;
12567;SDS011;6349;50.904;6.136;2023-04-03T08:17:58;2.47;;;1.90;;
12567;SDS011;6349;50.904;6.136;2023-04-03T08:19:59;2.90;;;1.80;;
12567;SDS011;6349;50.904;6.136;2023-04-03T08:22:01;3.73;;;1.73;;
12567;SDS011;6349;50.904;6.136;2023-04-03T08:24:03;4.07;;;2.00;;
12567;SDS011;6349;50.904;6.136;2023-04-03T08:26:15;4.00;;;2.13;;
12567;SDS011;6349;50.904;6.136;2023-04-03T08:28:17;2.13;;;1.73;;
12567;SDS011;6349;50.904;6.136;2023-04-03T08:30:18;3.57;;;2.60;;
12567;SDS011;6349;50.904;6.136;2023-04-03T08:32:20;4.00;;;2.20;;
12567;SDS011;6349;50.904;6.136;2023-04-03T08:34:21;3.13;;;2.00;;
12567;SDS011;6349;50.904;6.136;2023-04-03T08:36:23;4.87;;;2.30;;
12567;SDS011;6349;50.904;6.136;2023-04-03T08:38:27;4.67;;;2.40;;
12567;SDS011;6349;50.904;6.136;2023-04-03T08:40:27;3.47;;;2.30;;
12567;SDS011;6349;50.904;6.136;2023-04-03T08:44:39;4.03;;;2.07;;
12567;SDS011;6349;50.904;6.136;2023-04-03T08:49:23;5.53;;;2.20;;
12567;SDS011;6349;50.904;6.136;2023-04-03T08:51:25;3.67;;;2.20;;
12567;SDS011;6349;50.904;6.136;2023-04-03T08:53:32;4.13;;;2.23;;
12567;SDS011;6349;50.904;6.136;2023-04-03T08:55:40;3.27;;;2.20;;
12567;SDS011;6349;50.904;6.136;2023-04-03T08:57:47;2.80;;;2.10;;
12567;SDS011;6349;50.904;6.136;2023-04-03T08:59:50;2.57;;;2.03;;
12567;SDS011;6349;50.904;6.136;2023-04-03T09:01:52;4.17;;;2.20;;
12567;SDS011;6349;50.904;6.136;2023-04-03T09:03:55;4.97;;;1.93;;
12567;SDS011;6349;50.904;6.136;2023-04-03T09:08:00;3.70;;;2.23;;
12567;SDS011;6349;50.904;6.136;2023-04-03T09:10:14;4.70;;;1.90;;
12567;SDS011;6349;50.904;6.136;2023-04-03T09:12:28;3.90;;;1.73;;
12567;SDS011;6349;50.904;6.136;2023-04-03T09:14:38;3.67;;;2.00;;
12567;SDS011;6349;50.904;6.136;2023-04-03T09:16:54;2.80;;;1.63;;
12567;SDS011;6349;50.904;6.136;2023-04-03T09:21:39;3.43;;;2.00;;
12567;SDS011;6349;50.904;6.136;2023-04-03T09:25:45;2.40;;;1.60;;
12567;SDS011;6349;50.904;6.136;2023-04-03T09:27:46;3.17;;;1.90;;
12567;SDS011;6349;50.904;6.136;2023-04-03T09:29:47;2.37;;;1.70;;
12567;SDS011;6349;50.904;6.136;2023-04-03T09:31:52;3.37;;;1.60;;
12567;SDS011;6349;50.904;6.136;2023-04-03T09:34:01;2.63;;;1.60;;
12567;SDS011;6349;50.904;6.136;2023-04-03T09:36:05;2.17;;;1.67;;
12567;SDS011;6349;50.904;6.136;2023-04-03T09:42:26;2.77;;;1.70;;
12567;SDS011;6349;50.904;6.136;2023-04-03T09:44:29;4.63;;;1.70;;
12567;SDS011;6349;50.904;6.136;2023-04-03T09:46:36;2.63;;;1.83;;
12567;SDS011;6349;50.904;6.136;2023-04-03T09:48:38;3.03;;;1.70;;
12567;SDS011;6349;50.904;6.136;2023-04-03T09:52:58;3.17;;;1.60;;
12567;SDS011;6349;50.904;6.136;2023-04-03T09:55:06;3.57;;;1.93;;
12567;SDS011;6349;50.904;6.136;2023-04-03T09:57:10;2.17;;;1.60;;
12567;SDS011;6349;50.904;6.136;2023-04-03T09:59:13;2.23;;;1.40;;
12567;SDS011;6349;50.904;6.136;2023-04-03T10:01:30;2.73;;;1.40;;
12567;SDS011;6349;50.904;6.136;2023-04-03T10:03:35;1.90;;;1.13;;
12567;SDS011;6349;50.904;6.136;2023-04-03T10:05:41;2.47;;;1.33;;
12567;SDS011;6349;50.904;6.136;2023-04-03T10:07:42;1.40;;;1.10;;
12567;SDS011;6349;50.904;6.136;2023-04-03T10:09:44;1.70;;;1.20;;
12567;SDS011;6349;50.904;6.136;2023-04-03T10:11:59;4.17;;;1.80;;
12567;SDS011;6349;50.904;6.136;2023-04-03T10:14:10;2.40;;;1.10;;
12567;SDS011;6349;50.904;6.136;2023-04-03T10:16:20;2.07;;;1.17;;
12567;SDS011;6349;50.904;6.136;2023-04-03T10:18:44;3.83;;;1.50;;
12567;SDS011;6349;50.904;6.136;2023-04-03T10:21:06;2.03;;;1.10;;
12567;SDS011;6349;50.904;6.136;2023-04-03T10:23:15;1.70;;;1.30;;
12567;SDS011;6349;50.904;6.136;2023-04-03T10:25:20;2.70;;;1.10;;
12567;SDS011;6349;50.904;6.136;2023-04-03T10:30:21;1.10;;;1.00;;
12567;SDS011;6349;50.904;6.136;2023-04-03T10:32:52;3.70;;;1.37;;
12567;SDS011;6349;50.904;6.136;2023-04-03T10:35:25;2.17;;;1.10;;
12567;SDS011;6349;50.904;6.136;2023-04-03T10:47:45;1.77;;;0.90;;
12567;SDS011;6349;50.904;6.136;2023-04-03T10:57:27;1.80;;;1.03;;
12567;SDS011;6349;50.904;6.136;2023-04-03T10:59:50;2.33;;;1.10;;
12567;SDS011;6349;50.904;6.136;2023-04-03T11:01:59;2.00;;;1.30;;
12567;SDS011;6349;50.904;6.136;2023-04-03T11:04:06;1.70;;;1.20;;
12567;SDS011;6349;50.904;6.136;2023-04-03T11:06:09;1.70;;;0.97;;
12567;SDS011;6349;50.904;6.136;2023-04-03T11:08:25;2.50;;;1.20;;
12567;SDS011;6349;50.904;6.136;2023-04-03T11:10:41;2.47;;;1.10;;
12567;SDS011;6349;50.904;6.136;2023-04-03T11:12:48;1.43;;;1.17;;
12567;SDS011;6349;50.904;6.136;2023-04-03T11:15:04;1.57;;;1.10;;
12567;SDS011;6349;50.904;6.136;2023-04-03T11:22:25;2.23;;;1.10;;
12567;SDS011;6349;50.904;6.136;2023-04-03T11:24:31;2.17;;;1.10;;
12567;SDS011;6349;50.904;6.136;2023-04-03T11:26:35;1.13;;;0.97;;
12567;SDS011;6349;50.904;6.136;2023-04-03T11:28:41;2.00;;;1.30;;
12567;SDS011;6349;50.904;6.136;2023-04-03T11:33:21;2.50;;;1.13;;
12567;SDS011;6349;50.904;6.136;2023-04-03T11:35:36;1.93;;;1.23;;
12567;SDS011;6349;50.904;6.136;2023-04-03T11:37:50;2.33;;;1.20;;
12567;SDS011;6349;50.904;6.136;2023-04-03T11:39:54;1.60;;;1.10;;
12567;SDS011;6349;50.904;6.136;2023-04-03T11:42:14;2.77;;;1.10;;
12567;SDS011;6349;50.904;6.136;2023-04-03T11:49:00;2.57;;;1.20;;
12567;SDS011;6349;50.904;6.136;2023-04-03T11:51:01;2.03;;;1.20;;
12567;SDS011;6349;50.904;6.136;2023-04-03T11:53:26;1.13;;;1.00;;
12567;SDS011;6349;50.904;6.136;2023-04-03T11:59:59;3.70;;;1.23;;
12567;SDS011;6349;50.904;6.136;2023-04-03T12:02:01;3.13;;;1.40;;
12567;SDS011;6349;50.904;6.136;2023-04-03T12:04:08;2.63;;;1.20;;
12567;SDS011;6349;50.904;6.136;2023-04-03T12:08:56;3.23;;;1.37;;
12567;SDS011;6349;50.904;6.136;2023-04-03T12:10:32;1.47;;;1.10;;
12567;SDS011;6349;50.904;6.136;2023-04-03T12:12:34;1.83;;;1.00;;
12567;SDS011;6349;50.904;6.136;2023-04-03T12:14:37;2.70;;;1.10;;
12567;SDS011;6349;50.904;6.136;2023-04-03T12:18:55;2.53;;;1.10;;
12567;SDS011;6349;50.904;6.136;2023-04-03T12:21:03;1.10;;;1.00;;
12567;SDS011;6349;50.904;6.136;2023-04-03T12:25:47;1.80;;;1.10;;
12567;SDS011;6349;50.904;6.136;2023-04-03T12:27:49;2.10;;;1.23;;
12567;SDS011;6349;50.904;6.136;2023-04-03T12:30:06;1.33;;;1.00;;
12567;SDS011;6349;50.904;6.136;2023-04-03T12:36:49;1.33;;;1.03;;
12567;SDS011;6349;50.904;6.136;2023-04-03T12:39:12;2.17;;;1.07;;
12567;SDS011;6349;50.904;6.136;2023-04-03T12:41:36;1.70;;;0.87;;
12567;SDS011;6349;50.904;6.136;2023-04-03T12:48:09;3.57;;;1.40;;
12567;SDS011;6349;50.904;6.136;2023-04-03T12:54:41;1.57;;;1.07;;
12567;SDS011;6349;50.904;6.136;2023-04-03T12:56:42;1.37;;;1.00;;
12567;SDS011;6349;50.904;6.136;2023-04-03T12:58:44;2.50;;;1.27;;
12567;SDS011;6349;50.904;6.136;2023-04-03T13:00:45;1.60;;;1.10;;
12567;SDS011;6349;50.904;6.136;2023-04-03T13:02:47;2.13;;;1.10;;
12567;SDS011;6349;50.904;6.136;2023-04-03T13:04:50;2.07;;;1.10;;
12567;SDS011;6349;50.904;6.136;2023-04-03T13:06:52;1.33;;;1.07;;
12567;SDS011;6349;50.904;6.136;2023-04-03T13:08:56;1.60;;;1.20;;
12567;SDS011;6349;50.904;6.136;2023-04-03T13:11:03;2.90;;;1.10;;
12567;SDS011;6349;50.904;6.136;2023-04-03T13:13:14;2.23;;;1.17;;
12567;SDS011;6349;50.904;6.136;2023-04-03T13:15:29;2.70;;;1.10;;
12567;SDS011;6349;50.904;6.136;2023-04-03T13:17:41;2.37;;;1.10;;
12567;SDS011;6349;50.904;6.136;2023-04-03T13:19:44;1.73;;;1.10;;
12567;SDS011;6349;50.904;6.136;2023-04-03T13:21:46;2.47;;;1.33;;
12567;SDS011;6349;50.904;6.136;2023-04-03T13:23:48;1.63;;;1.20;;
12567;SDS011;6349;50.904;6.136;2023-04-03T13:25:51;2.50;;;1.20;;
12567;SDS011;6349;50.904;6.136;2023-04-03T13:27:53;3.67;;;1.23;;
12567;SDS011;6349;50.904;6.136;2023-04-03T13:29:54;1.90;;;1.00;;
12567;SDS011;6349;50.904;6.136;2023-04-03T13:31:59;2.00;;;1.30;;
12567;SDS011;6349;50.904;6.136;2023-04-03T13:34:11;1.40;;;1.03;;
12567;SDS011;6349;50.904;6.136;2023-04-03T13:36:27;2.40;;;1.13;;
12567;SDS011;6349;50.904;6.136;2023-04-03T13:38:32;2.40;;;1.30;;
12567;SDS011;6349;50.904;6.136;2023-04-03T13:40:33;1.40;;;1.27;;
12567;SDS011;6349;50.904;6.136;2023-04-03T13:43:01;2.47;;;1.20;;
12567;SDS011;6349;50.904;6.136;2023-04-03T13:45:23;3.03;;;1.40;;
12567;SDS011;6349;50.904;6.136;2023-04-03T13:47:37;2.87;;;1.10;;
12567;SDS011;6349;50.904;6.136;2023-04-03T13:49:41;1.60;;;0.97;;
12567;SDS011;6349;50.904;6.136;2023-04-03T13:51:44;1.80;;;1.00;;
12567;SDS011;6349;50.904;6.136;2023-04-03T13:53:56;1.40;;;1.10;;
12567;SDS011;6349;50.904;6.136;2023-04-03T13:56:00;2.50;;;1.20;;
12567;SDS011;6349;50.904;6.136;2023-04-03T14:02:31;1.83;;;0.90;;